createdAt,value
2023-05-07T00:01:48.247Z,34.92
2023-05-07T00:04:15.130Z,28.42
2023-05-07T00:06:42.222Z,24.80
2023-05-07T00:09:09.004Z,29.08
2023-05-07T00:11:37.272Z,34.22
2023-05-07T00:14:04.273Z,25.80
2023-05-07T00:16:31.016Z,23.85
2023-05-07T00:18:57.785Z,24.38
2023-05-07T00:21:27.499Z,27.23
2023-05-07T00:23:55.019Z,23.73
2023-05-07T00:26:23.088Z,25.80
2023-05-07T00:28:51.477Z,26.92
2023-05-07T00:31:18.301Z,28.05
2023-05-07T00:33:45.179Z,22.00
2023-05-07T00:36:11.903Z,28.40
2023-05-07T00:38:38.638Z,34.20
2023-05-07T00:41:06.148Z,28.25
2023-05-07T00:43:33.177Z,26.35
2023-05-07T00:45:59.977Z,33.75
2023-05-07T00:48:27.907Z,25.65
2023-05-07T00:50:54.974Z,24.27
2023-05-07T00:53:22.283Z,26.63
2023-05-07T00:55:49.385Z,22.25
2023-05-07T00:58:16.332Z,20.50
2023-05-07T01:00:43.119Z,24.77
2023-05-07T01:03:09.903Z,25.13
2023-05-07T01:05:37.270Z,25.55
2023-05-07T01:08:06.328Z,23.00
2023-05-07T01:10:33.331Z,23.60
2023-05-07T01:13:02.272Z,24.83
2023-05-07T01:15:29.085Z,28.50
2023-05-07T01:17:57.298Z,25.33
2023-05-07T01:20:31.472Z,29.92
2023-05-07T01:22:58.624Z,26.75
2023-05-07T01:25:25.823Z,26.73
2023-05-07T01:27:56.060Z,30.27
2023-05-07T01:30:28.159Z,25.50
2023-05-07T01:33:05.596Z,27.10
2023-05-07T01:35:38.606Z,29.55
2023-05-07T01:38:07.017Z,27.02
2023-05-07T01:40:35.335Z,28.92
2023-05-07T01:43:03.893Z,26.25
2023-05-07T01:45:32.557Z,25.13
2023-05-07T01:48:00.501Z,29.08
2023-05-07T01:50:28.179Z,28.80
2023-05-07T01:52:55.071Z,31.65
2023-05-07T01:55:22.135Z,27.13
2023-05-07T01:57:48.856Z,27.85
2023-05-07T02:00:16.413Z,31.88
2023-05-07T02:02:43.214Z,27.15
2023-05-07T02:05:20.652Z,26.98
2023-05-07T02:07:52.728Z,27.90
2023-05-07T02:10:19.506Z,28.77
2023-05-07T02:12:46.225Z,27.48
2023-05-07T02:15:12.947Z,25.67
2023-05-07T02:18:03.000Z,27.30
2023-05-07T02:20:30.236Z,26.45
2023-05-07T02:22:57.415Z,28.20
2023-05-07T02:25:25.717Z,27.92
2023-05-07T02:27:52.621Z,32.30
2023-05-07T02:30:22.755Z,31.88
2023-05-07T02:32:53.140Z,32.92
2023-05-07T02:35:19.856Z,35.83
2023-05-07T02:37:46.652Z,32.40
2023-05-07T02:40:14.625Z,37.80
2023-05-07T02:42:41.454Z,30.15
2023-05-07T02:45:08.775Z,29.00
2023-05-07T02:47:36.382Z,31.17
2023-05-07T02:50:04.822Z,35.90
2023-05-07T02:52:31.711Z,33.25
2023-05-07T02:54:58.911Z,30.88
2023-05-07T02:57:25.612Z,34.25
2023-05-07T02:59:53.033Z,31.25
2023-05-07T03:02:21.361Z,35.92
2023-05-07T03:04:48.069Z,33.47
2023-05-07T03:07:15.402Z,33.20
2023-05-07T03:09:42.113Z,40.25
2023-05-07T03:12:09.128Z,30.05
2023-05-07T03:14:36.007Z,31.13
2023-05-07T03:17:03.248Z,34.70
2023-05-07T03:19:31.608Z,38.60
2023-05-07T03:21:58.762Z,34.95
2023-05-07T03:24:25.533Z,35.35
2023-05-07T03:26:52.228Z,38.90
2023-05-07T03:29:19.004Z,38.50
2023-05-07T03:31:46.114Z,36.47
2023-05-07T03:34:12.900Z,36.80
2023-05-07T03:36:39.663Z,39.22
2023-05-07T03:39:09.460Z,36.05
2023-05-07T03:41:40.045Z,37.70
2023-05-07T03:44:06.982Z,40.33
2023-05-07T03:46:35.264Z,37.78
2023-05-07T03:49:03.334Z,50.80
2023-05-07T03:51:31.528Z,34.53
2023-05-07T03:53:58.308Z,42.97
2023-05-07T03:56:27.627Z,40.00
2023-05-07T03:58:55.738Z,39.83
2023-05-07T04:01:22.613Z,37.88
2023-05-07T04:03:49.402Z,39.75
2023-05-07T04:06:18.380Z,34.63
2023-05-07T04:08:47.760Z,36.00
2023-05-07T04:11:14.522Z,41.95
2023-05-07T04:13:41.242Z,41.40
2023-05-07T04:16:09.794Z,41.10
2023-05-07T04:18:38.284Z,39.33
2023-05-07T04:21:05.880Z,40.72
2023-05-07T04:23:35.012Z,42.03
2023-05-07T04:26:05.229Z,40.72
2023-05-07T04:28:41.668Z,40.50
2023-05-07T04:31:08.879Z,43.78
2023-05-07T04:33:38.233Z,42.72
2023-05-07T04:36:08.544Z,40.65
2023-05-07T04:38:41.794Z,42.00
2023-05-07T04:41:10.209Z,33.67
2023-05-07T04:46:08.017Z,31.13
2023-05-07T04:48:35.668Z,33.35
2023-05-07T04:51:05.153Z,33.92
2023-05-07T04:53:31.974Z,35.55
2023-05-07T04:55:59.152Z,34.67
2023-05-07T04:58:32.836Z,36.92
2023-05-07T05:01:01.395Z,33.13
2023-05-07T05:03:28.663Z,33.92
2023-05-07T05:05:55.610Z,33.63
2023-05-07T05:08:23.950Z,33.25
2023-05-07T05:10:50.968Z,37.78
2023-05-07T05:13:18.587Z,31.55
2023-05-07T05:15:46.715Z,35.33
2023-05-07T05:18:14.609Z,29.25
2023-05-07T05:20:41.402Z,28.83
2023-05-07T05:23:09.002Z,26.70
2023-05-07T05:25:36.141Z,35.50
2023-05-07T05:28:02.916Z,27.35
2023-05-07T05:30:31.485Z,25.73
2023-05-07T05:32:58.277Z,26.00
2023-05-07T05:35:27.952Z,27.10
2023-05-07T05:37:55.118Z,30.27
2023-05-07T05:40:22.505Z,28.67
2023-05-07T05:42:49.318Z,28.17
2023-05-07T05:45:17.086Z,29.40
2023-05-07T05:47:45.633Z,29.00
2023-05-07T05:50:12.734Z,25.85
2023-05-07T05:52:41.850Z,27.52
2023-05-07T05:55:09.566Z,26.20
2023-05-07T05:57:37.792Z,23.65
2023-05-07T06:00:05.535Z,22.63
2023-05-07T06:02:34.159Z,24.13
2023-05-07T06:05:02.235Z,29.02
2023-05-07T06:07:28.979Z,20.80
2023-05-07T06:09:56.354Z,23.70
2023-05-07T06:12:23.157Z,23.83
2023-05-07T06:14:49.903Z,27.75
2023-05-07T06:17:18.308Z,20.35
2023-05-07T06:19:47.426Z,22.23
2023-05-07T06:22:15.993Z,22.25
2023-05-07T06:24:42.693Z,20.92
2023-05-07T06:27:09.958Z,24.55
2023-05-07T06:29:37.487Z,28.13
2023-05-07T06:32:12.356Z,28.73
2023-05-07T06:34:41.891Z,23.30
2023-05-07T06:37:09.079Z,26.55
2023-05-07T06:39:48.495Z,25.23
2023-05-07T06:42:15.342Z,22.98
2023-05-07T06:44:43.783Z,21.67
2023-05-07T06:47:16.482Z,23.15
2023-05-07T06:49:45.824Z,22.80
2023-05-07T06:52:16.375Z,22.98
2023-05-07T06:54:43.445Z,22.70
2023-05-07T06:57:11.096Z,21.90
2023-05-07T06:59:37.794Z,23.40
2023-05-07T07:02:04.617Z,22.55
2023-05-07T07:04:31.571Z,21.80
2023-05-07T07:07:03.882Z,20.77
2023-05-07T07:09:30.719Z,21.75
2023-05-07T07:11:58.425Z,23.75
2023-05-07T07:14:25.276Z,26.55
2023-05-07T07:16:54.238Z,21.38
2023-05-07T07:19:22.535Z,22.60
2023-05-07T07:21:52.611Z,18.98
2023-05-07T07:24:22.150Z,23.73
2023-05-07T07:26:52.587Z,17.85
2023-05-07T07:29:20.981Z,22.23
2023-05-07T07:31:50.377Z,25.17
2023-05-07T07:34:19.280Z,19.77
2023-05-07T07:36:47.111Z,21.10
2023-05-07T07:39:17.450Z,26.60
2023-05-07T07:41:45.482Z,18.10
2023-05-07T07:44:16.115Z,18.88
2023-05-07T07:46:45.011Z,23.63
2023-05-07T07:49:11.816Z,21.83
2023-05-07T07:51:38.742Z,21.02
2023-05-07T07:54:05.815Z,21.10
2023-05-07T07:56:35.377Z,21.52
2023-05-07T07:59:03.966Z,21.55
2023-05-07T08:01:32.127Z,20.77
2023-05-07T08:04:00.009Z,20.27
2023-05-07T08:06:29.540Z,16.77
2023-05-07T08:08:56.713Z,20.38
2023-05-07T08:11:23.787Z,21.77
2023-05-07T08:13:51.883Z,20.13
2023-05-07T08:16:19.490Z,20.90
2023-05-07T08:18:46.410Z,20.00
2023-05-07T08:21:13.414Z,20.00
2023-05-07T08:23:40.218Z,22.83
2023-05-07T08:26:09.135Z,18.33
2023-05-07T08:28:37.095Z,17.73
2023-05-07T08:31:03.935Z,18.35
2023-05-07T08:33:35.174Z,17.75
2023-05-07T08:36:02.288Z,16.95
2023-05-07T08:38:29.524Z,20.88
2023-05-07T08:40:56.788Z,17.73
2023-05-07T08:43:27.795Z,15.80
2023-05-07T08:45:56.569Z,19.03
2023-05-07T08:48:30.719Z,16.80
2023-05-07T08:51:06.153Z,16.52
2023-05-07T08:53:34.036Z,18.27
2023-05-07T08:56:02.235Z,18.45
2023-05-07T08:58:30.377Z,13.07
2023-05-07T09:00:57.444Z,14.80
2023-05-07T09:03:25.399Z,15.05
2023-05-07T09:05:55.176Z,15.18
2023-05-07T09:08:27.420Z,16.00
2023-05-07T09:10:56.508Z,13.50
2023-05-07T09:13:23.995Z,18.88
2023-05-07T09:15:51.233Z,17.70
2023-05-07T09:18:18.525Z,16.38
2023-05-07T09:20:48.061Z,19.55
2023-05-07T09:23:16.137Z,15.93
2023-05-07T09:25:43.896Z,12.38
2023-05-07T09:28:17.448Z,14.57
2023-05-07T09:30:45.463Z,12.95
2023-05-07T09:33:13.773Z,13.75
2023-05-07T09:35:44.709Z,15.23
2023-05-07T09:40:45.495Z,13.63
2023-05-07T09:43:15.348Z,14.63
2023-05-07T09:45:52.414Z,14.02
2023-05-07T09:48:21.746Z,14.50
2023-05-07T09:50:57.360Z,13.05
2023-05-07T09:53:26.705Z,13.00
2023-05-07T09:55:55.548Z,16.13
2023-05-07T09:58:23.943Z,12.88
2023-05-07T10:00:53.407Z,12.77
2023-05-07T10:03:22.949Z,13.13
2023-05-07T10:05:55.952Z,14.98
2023-05-07T10:08:23.241Z,17.45
2023-05-07T10:10:53.676Z,11.70
2023-05-07T10:13:25.110Z,11.02
2023-05-07T10:15:56.379Z,12.10
2023-05-07T10:18:30.758Z,11.88
2023-05-07T10:21:14.264Z,9.90
2023-05-07T10:23:42.124Z,10.23
2023-05-07T10:26:10.257Z,11.85
2023-05-07T10:28:42.763Z,12.40
2023-05-07T10:31:35.881Z,11.45
2023-05-07T10:34:08.764Z,13.65
2023-05-07T10:36:38.284Z,8.75
2023-05-07T10:39:07.045Z,9.20
2023-05-07T10:41:34.311Z,8.68
2023-05-07T10:44:02.275Z,9.07
2023-05-07T10:46:36.127Z,9.63
2023-05-07T10:49:09.622Z,12.23
2023-05-07T10:51:42.306Z,13.52
2023-05-07T10:54:20.677Z,9.02
2023-05-07T10:56:56.162Z,8.18
2023-05-07T10:59:32.584Z,9.00
2023-05-07T11:02:08.580Z,10.25
2023-05-07T11:04:45.369Z,10.48
2023-05-07T11:07:31.196Z,8.85
2023-05-07T11:10:05.391Z,8.88
2023-05-07T11:12:41.853Z,10.57
2023-05-07T11:15:18.268Z,8.85
2023-05-07T11:18:00.852Z,8.90
2023-05-07T11:20:56.452Z,11.57
2023-05-07T11:23:48.775Z,11.20
2023-05-07T11:26:30.009Z,9.23
2023-05-07T11:28:57.769Z,8.98
2023-05-07T11:31:29.195Z,9.32
2023-05-07T11:33:58.615Z,10.70
2023-05-07T11:36:27.040Z,7.45
2023-05-07T11:38:55.944Z,9.05
2023-05-07T11:41:23.716Z,7.35
2023-05-07T11:43:58.516Z,7.55
2023-05-07T11:46:25.541Z,9.20
2023-05-07T11:48:52.666Z,14.57
2023-05-07T11:51:24.738Z,8.07
2023-05-07T11:53:51.626Z,8.07
2023-05-07T11:56:19.454Z,8.88
2023-05-07T11:58:48.228Z,8.90
2023-05-07T12:01:16.676Z,6.35
2023-05-07T12:03:46.675Z,8.00
2023-05-07T12:06:17.776Z,8.82
2023-05-07T12:08:47.836Z,7.22
2023-05-07T12:11:24.325Z,7.65
2023-05-07T12:13:51.965Z,7.10
2023-05-07T12:16:20.533Z,10.18
2023-05-07T12:18:47.915Z,8.63
2023-05-07T12:21:15.071Z,7.70
2023-05-07T12:23:41.949Z,6.10
2023-05-07T12:26:09.664Z,7.10
2023-05-07T12:28:40.506Z,7.95
2023-05-07T12:31:08.147Z,8.18
2023-05-07T12:33:35.821Z,6.25
2023-05-07T12:36:06.425Z,6.05
2023-05-07T12:38:37.522Z,5.97
2023-05-07T12:41:04.586Z,10.38
2023-05-07T12:43:31.328Z,9.45
2023-05-07T12:46:01.067Z,8.50
2023-05-07T12:48:28.135Z,9.13
2023-05-07T12:50:55.909Z,9.07
2023-05-07T12:53:25.523Z,7.25
2023-05-07T12:55:54.277Z,7.63
2023-05-07T12:58:31.599Z,6.97
2023-05-07T13:01:01.120Z,10.27
2023-05-07T13:03:32.272Z,7.97
2023-05-07T13:06:01.558Z,7.57
2023-05-07T13:08:39.747Z,7.25
2023-05-07T13:11:07.952Z,7.97
2023-05-07T13:13:38.339Z,7.07
2023-05-07T13:16:07.216Z,6.43
2023-05-07T13:18:35.236Z,8.07
2023-05-07T13:21:02.880Z,8.60
2023-05-07T13:23:30.349Z,10.73
2023-05-07T13:25:57.613Z,9.20
2023-05-07T13:28:25.367Z,8.07
2023-05-07T13:30:55.936Z,8.48
2023-05-07T13:33:23.040Z,8.05
2023-05-07T13:35:49.724Z,8.05
2023-05-07T13:38:16.998Z,9.15
2023-05-07T13:40:43.780Z,9.00
2023-05-07T13:43:11.564Z,8.48
2023-05-07T13:45:38.521Z,9.65
2023-05-07T13:48:05.545Z,9.23
2023-05-07T13:50:32.335Z,8.57
2023-05-07T13:52:59.043Z,8.07
2023-05-07T13:55:26.185Z,9.23
2023-05-07T13:58:00.509Z,8.45
2023-05-07T14:00:28.981Z,8.30
2023-05-07T14:02:57.265Z,8.77
2023-05-07T14:05:24.260Z,7.78
2023-05-07T14:07:52.762Z,10.30
2023-05-07T14:10:20.271Z,12.02
2023-05-07T14:12:47.623Z,6.68
2023-05-07T14:15:15.991Z,10.48
2023-05-07T14:17:43.592Z,11.80
2023-05-07T14:20:11.680Z,7.97
2023-05-07T14:22:38.854Z,8.77
2023-05-07T14:25:14.235Z,7.68
2023-05-07T14:27:42.047Z,9.63
2023-05-07T14:30:09.216Z,7.57
2023-05-07T14:32:36.027Z,9.05
2023-05-07T14:35:02.779Z,9.27
2023-05-07T14:37:30.149Z,8.98
2023-05-07T14:39:56.795Z,10.43
2023-05-07T14:42:23.524Z,10.85
2023-05-07T14:44:50.338Z,13.63
2023-05-07T14:47:18.309Z,7.63
2023-05-07T14:49:46.601Z,8.52
2023-05-07T14:52:13.443Z,7.15
2023-05-07T14:54:40.135Z,8.20
2023-05-07T14:57:08.054Z,6.40
2023-05-07T14:59:35.251Z,6.00
2023-05-07T15:02:05.374Z,7.63
2023-05-07T15:04:33.044Z,7.22
2023-05-07T15:06:59.761Z,7.97
2023-05-07T15:09:26.889Z,8.20
2023-05-07T15:11:53.681Z,8.75
2023-05-07T15:14:22.682Z,7.50
2023-05-07T15:16:49.986Z,8.50
2023-05-07T15:19:17.768Z,6.07
2023-05-07T15:21:45.716Z,7.53
2023-05-07T15:24:12.448Z,6.22
2023-05-07T15:26:40.738Z,7.70
2023-05-07T15:29:10.974Z,6.60
2023-05-07T15:31:40.965Z,6.55
2023-05-07T15:34:07.780Z,6.60
2023-05-07T15:36:34.486Z,7.30
2023-05-07T15:39:03.010Z,7.47
2023-05-07T15:41:29.726Z,7.80
2023-05-07T15:43:56.507Z,10.75
2023-05-07T15:46:25.561Z,6.30
2023-05-07T15:48:53.482Z,6.00
2023-05-07T15:51:21.037Z,5.65
2023-05-07T15:53:48.117Z,6.97
2023-05-07T15:56:15.024Z,6.70
2023-05-07T15:58:43.382Z,6.65
2023-05-07T16:01:10.441Z,6.53
2023-05-07T16:03:37.521Z,7.85
2023-05-07T16:06:04.346Z,8.65
2023-05-07T16:08:31.541Z,9.30
2023-05-07T16:10:58.176Z,7.35
2023-05-07T16:13:25.133Z,7.35
2023-05-07T16:15:59.158Z,6.30
2023-05-07T16:18:26.024Z,6.95
2023-05-07T16:20:52.882Z,7.82
2023-05-07T16:23:19.673Z,10.73
2023-05-07T16:25:46.497Z,6.93
2023-05-07T16:28:14.842Z,9.63
2023-05-07T16:30:42.551Z,7.70
2023-05-07T16:33:09.354Z,10.90
2023-05-07T16:35:36.083Z,9.05
2023-05-07T16:38:09.573Z,9.65
2023-05-07T16:40:38.977Z,10.07
2023-05-07T16:43:06.166Z,8.15
2023-05-07T16:45:32.938Z,9.52
2023-05-07T16:47:59.825Z,14.10
2023-05-07T16:50:26.560Z,8.65
2023-05-07T16:52:53.244Z,8.70
2023-05-07T16:55:20.226Z,7.03
2023-05-07T16:57:46.914Z,6.68
2023-05-07T17:00:14.596Z,7.30
2023-05-07T17:02:41.418Z,9.07
2023-05-07T17:05:09.526Z,7.75
2023-05-07T17:07:36.454Z,12.38
2023-05-07T17:10:03.654Z,7.80
2023-05-07T17:12:31.508Z,7.00
2023-05-07T17:14:58.161Z,7.47
2023-05-07T17:17:24.842Z,6.90
2023-05-07T17:19:51.674Z,10.18
2023-05-07T17:22:18.336Z,8.43
2023-05-07T17:24:45.149Z,8.90
2023-05-07T17:27:11.808Z,9.63
2023-05-07T17:29:38.495Z,8.07
2023-05-07T17:32:07.045Z,9.20
2023-05-07T17:34:35.202Z,8.73
2023-05-07T17:37:02.532Z,9.02
2023-05-07T17:39:29.335Z,8.38
2023-05-07T17:41:56.196Z,8.13
2023-05-07T17:44:22.991Z,9.02
2023-05-07T17:46:50.151Z,10.40
2023-05-07T17:49:17.121Z,12.20
2023-05-07T17:51:53.860Z,9.93
2023-05-07T17:54:24.487Z,10.65
2023-05-07T17:56:52.560Z,9.85
2023-05-07T17:59:19.418Z,10.23
2023-05-07T18:01:46.235Z,10.45
2023-05-07T18:04:13.007Z,11.23
2023-05-07T18:06:41.622Z,12.13
2023-05-07T18:09:08.426Z,11.20
2023-05-07T18:11:36.143Z,9.98
2023-05-07T18:14:02.808Z,11.80
2023-05-07T18:16:29.630Z,11.70
2023-05-07T18:18:58.465Z,10.82
2023-05-07T18:21:25.381Z,12.57
2023-05-07T18:23:52.084Z,12.23
2023-05-07T18:26:18.810Z,10.13
2023-05-07T18:28:46.290Z,13.05
2023-05-07T18:31:13.165Z,13.73
2023-05-07T18:33:39.942Z,11.15
2023-05-07T18:36:06.898Z,16.48
2023-05-07T18:38:34.045Z,12.20
2023-05-07T18:41:02.912Z,12.05
2023-05-07T18:43:29.666Z,13.15
2023-05-07T18:45:56.433Z,13.23
2023-05-07T18:48:23.099Z,15.48
2023-05-07T18:50:50.198Z,14.00
2023-05-07T18:53:16.886Z,11.77
2023-05-07T18:55:46.077Z,13.30
2023-05-07T18:58:15.021Z,12.48
2023-05-07T19:00:44.058Z,12.60
2023-05-07T19:03:10.740Z,11.23
2023-05-07T19:05:37.432Z,12.85
2023-05-07T19:08:04.130Z,14.13
2023-05-07T19:10:30.814Z,12.07
2023-05-07T19:12:57.774Z,11.23
2023-05-07T19:15:24.605Z,13.88
2023-05-07T19:17:51.579Z,12.50
2023-05-07T19:20:18.373Z,11.77
2023-05-07T19:22:45.076Z,9.85
2023-05-07T19:25:13.189Z,11.35
2023-05-07T19:27:40.262Z,11.43
2023-05-07T19:30:08.763Z,10.60
2023-05-07T19:32:38.697Z,11.55
2023-05-07T19:35:05.881Z,13.73
2023-05-07T19:37:32.599Z,13.27
2023-05-07T19:40:04.860Z,15.23
2023-05-07T19:42:32.099Z,14.93
2023-05-07T19:44:58.726Z,15.95
2023-05-07T19:47:26.407Z,10.95
2023-05-07T19:49:53.172Z,11.27
2023-05-07T19:52:23.057Z,12.38
2023-05-07T19:54:49.726Z,10.77
2023-05-07T19:57:17.598Z,10.35
2023-05-07T19:59:46.204Z,12.90
2023-05-07T20:02:12.908Z,11.88
2023-05-07T20:04:39.630Z,9.85
2023-05-07T20:07:06.439Z,13.60
2023-05-07T20:09:33.572Z,10.88
2023-05-07T20:12:00.641Z,12.80
2023-05-07T20:14:27.835Z,10.25
2023-05-07T20:16:54.560Z,13.32
2023-05-07T20:19:21.275Z,11.32
2023-05-07T20:21:48.184Z,11.77
2023-05-07T20:24:14.952Z,15.23
2023-05-07T20:26:41.793Z,9.60
2023-05-07T20:29:08.443Z,11.98
2023-05-07T20:31:35.506Z,9.60
2023-05-07T20:34:03.161Z,14.63
2023-05-07T20:36:29.880Z,12.13
2023-05-07T20:38:56.561Z,11.43
2023-05-07T20:41:25.006Z,11.43
2023-05-07T20:43:51.732Z,11.35
2023-05-07T20:46:20.737Z,16.08
2023-05-07T20:48:47.874Z,12.55
2023-05-07T20:51:15.852Z,10.45
2023-05-07T20:53:45.491Z,11.55
2023-05-07T20:56:14.093Z,12.77
2023-05-07T20:58:40.850Z,10.98
2023-05-07T21:01:07.823Z,13.77
2023-05-07T21:03:34.679Z,10.95
2023-05-07T21:06:02.236Z,13.77
2023-05-07T21:08:28.891Z,11.10
2023-05-07T21:10:55.881Z,10.60
2023-05-07T21:13:23.275Z,12.60
2023-05-07T21:15:50.482Z,12.25
2023-05-07T21:18:18.383Z,10.63
2023-05-07T21:20:45.093Z,10.45
2023-05-07T21:23:11.779Z,10.93
2023-05-07T21:25:39.167Z,10.27
2023-05-07T21:28:10.222Z,14.13
2023-05-07T21:30:37.341Z,12.40
2023-05-07T21:33:06.936Z,11.70
2023-05-07T21:35:34.934Z,12.13
2023-05-07T21:38:03.062Z,9.68
2023-05-07T21:40:29.912Z,10.45
2023-05-07T21:42:58.246Z,11.15
2023-05-07T21:45:25.085Z,11.23
2023-05-07T21:47:51.770Z,10.02
2023-05-07T21:50:18.726Z,9.35
2023-05-07T21:52:45.636Z,11.15
2023-05-07T21:55:12.513Z,12.65
2023-05-07T21:57:41.979Z,11.70
2023-05-07T22:00:13.166Z,17.40
2023-05-07T22:02:40.282Z,10.90
2023-05-07T22:05:07.215Z,10.40
2023-05-07T22:07:34.164Z,10.02
2023-05-07T22:10:01.014Z,12.50
2023-05-07T22:12:27.678Z,11.95
2023-05-07T22:14:54.312Z,10.38
2023-05-07T22:17:21.089Z,14.07
2023-05-07T22:19:47.782Z,11.45
2023-05-07T22:22:14.475Z,10.55
2023-05-07T22:24:41.203Z,8.95
2023-05-07T22:27:07.919Z,9.40
2023-05-07T22:29:34.749Z,12.25
2023-05-07T22:32:02.339Z,13.15
2023-05-07T22:34:29.470Z,11.52
2023-05-07T22:36:56.101Z,12.95
2023-05-07T22:39:22.917Z,11.10
2023-05-07T22:41:50.608Z,11.23
2023-05-07T22:44:17.577Z,11.18
2023-05-07T22:46:44.254Z,13.35
2023-05-07T22:49:11.012Z,11.63
2023-05-07T22:51:37.882Z,17.42
2023-05-07T22:54:04.671Z,9.73
2023-05-07T22:56:31.309Z,14.25
2023-05-07T22:58:58.004Z,11.63
2023-05-07T23:01:24.914Z,11.38
2023-05-07T23:03:51.811Z,10.48
2023-05-07T23:06:18.739Z,11.93
2023-05-07T23:08:45.491Z,10.63
2023-05-07T23:11:12.147Z,11.07
2023-05-07T23:13:38.798Z,12.55
2023-05-07T23:16:05.738Z,11.85
2023-05-07T23:18:32.630Z,10.98
2023-05-07T23:20:59.437Z,12.45
2023-05-07T23:23:26.740Z,12.13
2023-05-07T23:25:53.621Z,10.55
2023-05-07T23:28:20.404Z,13.15
2023-05-07T23:30:47.606Z,11.80
2023-05-07T23:33:14.333Z,11.85
2023-05-07T23:35:41.128Z,12.68
2023-05-07T23:38:07.813Z,14.63
2023-05-07T23:40:34.619Z,14.77
2023-05-07T23:43:02.405Z,11.25
2023-05-07T23:45:29.203Z,13.85
2023-05-07T23:47:55.940Z,12.40
2023-05-07T23:50:22.630Z,14.35
2023-05-07T23:52:49.299Z,15.93
2023-05-07T23:55:16.684Z,12.18
2023-05-07T23:57:43.432Z,11.93
